Time;durP1;ratioP1;P1;durP2;ratioP2;P2;SDS_P1;SDS_P2;PMS_P1;PMS_P2;Temp;Humidity;BMP_temperature;BMP_pressure;BME280_temperature;BME280_humidity;BME280_pressure;Samples;Min_cycle;Max_cycle;Signal;HPM_P1;HPM_P2
2022/12/29 00:00:15;;;;;;;5.72;3.83;;;9.10;99.90;;;;;;5089072;28;20493;-82
2022/12/29 00:02:41;;;;;;;5.72;4.05;;;9.20;99.90;;;;;;5105967;28;20076;-82
2022/12/29 00:05:09;;;;;;;5.35;3.80;;;9.20;99.90;;;;;;5077364;28;20033;-82
2022/12/29 00:07:35;;;;;;;5.25;3.30;;;9.20;99.90;;;;;;5073250;28;20044;-82
2022/12/29 00:10:02;;;;;;;5.53;3.50;;;9.20;99.90;;;;;;5088957;28;20036;-82
2022/12/29 00:15:36;;;;;;;5.43;3.60;;;9.20;99.90;;;;;;5088826;28;20444;-82
2022/12/29 00:18:01;;;;;;;5.03;3.63;;;9.30;99.90;;;;;;5091550;28;20562;-82
2022/12/29 00:37:13;;;;;;;5.63;3.63;;;9.30;99.90;;;;;;5095332;28;20508;-83
2022/12/29 00:45:09;;;;;;;5.60;4.00;;;9.30;99.90;;;;;;5097442;28;20077;-82
2022/12/29 00:47:36;;;;;;;7.20;4.43;;;9.30;99.90;;;;;;5089253;28;20490;-82
2022/12/29 00:50:03;;;;;;;7.28;4.60;;;9.30;99.90;;;;;;5072405;28;20036;-82
2022/12/29 00:52:30;;;;;;;5.53;4.10;;;9.30;99.90;;;;;;5088270;28;20135;-82
2022/12/29 00:54:57;;;;;;;6.55;4.30;;;9.30;99.90;;;;;;5056157;28;20128;-82
2022/12/29 00:57:23;;;;;;;7.07;4.30;;;9.30;99.90;;;;;;5055753;28;20162;-82
2022/12/29 00:59:50;;;;;;;5.95;4.05;;;9.30;99.90;;;;;;5091782;28;20135;-83
2022/12/29 01:02:17;;;;;;;6.20;3.97;;;9.30;99.90;;;;;;5075557;28;20127;-82
2022/12/29 01:04:43;;;;;;;5.82;4.28;;;9.30;99.90;;;;;;5076441;28;20040;-82
2022/12/29 01:07:10;;;;;;;8.75;3.97;;;9.30;99.90;;;;;;5079412;28;20044;-82
2022/12/29 01:12:40;;;;;;;6.20;3.97;;;9.30;99.90;;;;;;5098074;28;20125;-82
2022/12/29 01:15:12;;;;;;;6.22;3.83;;;9.30;99.90;;;;;;5104100;28;20035;-82
2022/12/29 01:17:39;;;;;;;7.03;4.07;;;9.40;99.90;;;;;;5149773;28;20449;-82
2022/12/29 01:20:06;;;;;;;6.78;3.60;;;9.40;99.90;;;;;;5115998;28;20039;-83
2022/12/29 01:22:33;;;;;;;5.78;3.60;;;9.40;99.90;;;;;;5115637;28;20450;-83
2022/12/29 01:24:59;;;;;;;5.43;3.83;;;9.40;99.90;;;;;;5142988;28;20035;-83
2022/12/29 01:27:26;;;;;;;5.32;3.65;;;9.40;99.90;;;;;;5079000;28;20043;-82
2022/12/29 01:29:53;;;;;;;5.03;3.85;;;9.40;99.90;;;;;;5079005;28;20065;-82
2022/12/29 01:32:19;;;;;;;7.43;3.70;;;9.40;99.90;;;;;;5078746;28;20040;-82
2022/12/29 01:34:46;;;;;;;5.90;3.65;;;9.50;99.90;;;;;;5075637;28;20040;-82
2022/12/29 01:37:13;;;;;;;7.38;3.75;;;9.50;99.90;;;;;;5097157;28;20092;-83
2022/12/29 01:39:39;;;;;;;9.05;3.85;;;9.50;99.90;;;;;;5088548;28;20109;-82
2022/12/29 01:42:15;;;;;;;5.97;3.78;;;9.50;99.90;;;;;;5122709;28;20502;-82
2022/12/29 01:44:51;;;;;;;5.43;4.00;;;9.50;99.90;;;;;;5131241;28;20048;-83
2022/12/29 01:47:49;;;;;;;6.65;3.33;;;9.50;99.90;;;;;;5111350;28;20040;-82
2022/12/29 01:50:35;;;;;;;4.78;3.10;;;9.50;99.90;;;;;;5125951;28;20046;-82
2022/12/29 01:53:15;;;;;;;4.95;3.55;;;9.50;99.90;;;;;;5111677;28;20044;-82
2022/12/29 01:55:53;;;;;;;6.85;3.60;;;9.50;99.90;;;;;;5136850;28;20039;-82
2022/12/29 01:58:22;;;;;;;7.32;3.70;;;9.50;99.90;;;;;;5116306;28;20123;-81
2022/12/29 02:00:49;;;;;;;5.45;3.20;;;9.50;99.90;;;;;;5129480;28;20036;-82
2022/12/29 02:03:19;;;;;;;6.28;3.10;;;9.50;99.90;;;;;;5109627;28;20051;-82
2022/12/29 02:06:01;;;;;;;6.47;3.53;;;9.50;99.90;;;;;;5130000;28;20154;-82
2022/12/29 02:08:29;;;;;;;5.30;3.30;;;9.50;99.90;;;;;;5114662;28;20040;-82
2022/12/29 02:10:57;;;;;;;5.25;3.10;;;9.50;99.90;;;;;;5106647;28;20403;-82
2022/12/29 02:13:25;;;;;;;6.55;3.20;;;9.50;99.90;;;;;;5131749;28;20043;-82
2022/12/29 02:16:00;;;;;;;4.30;2.80;;;9.50;99.90;;;;;;5130767;28;20039;-82
2022/12/29 02:18:59;;;;;;;4.28;2.60;;;9.60;99.90;;;;;;5107302;28;20189;-83
2022/12/29 02:21:49;;;;;;;4.22;2.78;;;9.60;99.90;;;;;;5107538;28;20063;-82
2022/12/29 02:24:30;;;;;;;4.53;2.92;;;9.70;99.90;;;;;;5097171;28;20094;-82
2022/12/29 02:27:32;;;;;;;5.80;2.88;;;9.70;99.90;;;;;;5107737;28;20044;-82
2022/12/29 02:30:04;;;;;;;6.18;3.10;;;9.70;99.90;;;;;;5030086;28;20038;-82
2022/12/29 02:32:45;;;;;;;5.60;2.90;;;9.70;99.90;;;;;;5077587;28;20139;-82
2022/12/29 02:35:24;;;;;;;5.45;2.88;;;9.70;99.90;;;;;;5091146;28;20076;-82
2022/12/29 02:38:26;;;;;;;6.30;2.90;;;9.70;99.90;;;;;;5090841;28;20043;-82
2022/12/29 02:41:00;;;;;;;5.70;2.75;;;9.70;99.90;;;;;;5109977;28;20032;-82
2022/12/29 02:43:49;;;;;;;5.47;2.60;;;9.70;99.90;;;;;;5110575;28;20071;-82
2022/12/29 02:46:34;;;;;;;4.68;2.65;;;9.80;99.90;;;;;;5110505;28;20044;-82
2022/12/29 02:49:14;;;;;;;4.57;2.60;;;9.70;99.90;;;;;;5110386;28;20563;-82
2022/12/29 02:52:07;;;;;;;3.97;2.25;;;9.80;99.90;;;;;;5090155;28;20048;-82
2022/12/29 02:54:40;;;;;;;3.65;2.45;;;9.80;99.90;;;;;;5090109;28;20078;-82
2022/12/29 02:57:22;;;;;;;4.50;2.30;;;9.80;99.90;;;;;;5091527;28;20492;-82
2022/12/29 02:59:54;;;;;;;5.35;2.95;;;9.80;99.90;;;;;;5089914;28;20052;-82
2022/12/29 03:02:42;;;;;;;6.05;2.80;;;9.80;99.90;;;;;;5107139;28;20056;-82
2022/12/29 03:05:40;;;;;;;5.22;2.60;;;9.80;99.90;;;;;;5090160;28;20086;-82
2022/12/29 03:08:28;;;;;;;6.15;2.33;;;9.70;99.90;;;;;;5090718;28;20037;-83
2022/12/29 03:12:07;;;;;;;6.45;2.58;;;9.80;99.90;;;;;;5098821;28;20043;-83
2022/12/29 03:17:29;;;;;;;4.20;2.38;;;9.80;99.90;;;;;;5126990;28;20076;-83
2022/12/29 03:20:05;;;;;;;4.38;1.92;;;9.70;99.90;;;;;;5109740;28;20415;-83
2022/12/29 03:22:38;;;;;;;3.95;2.03;;;9.80;99.90;;;;;;5109839;28;20438;-82
2022/12/29 03:25:11;;;;;;;8.13;2.08;;;9.80;99.90;;;;;;5110114;28;20404;-82
2022/12/29 03:27:58;;;;;;;5.45;2.10;;;9.80;99.90;;;;;;5126824;28;20083;-82
2022/12/29 03:30:27;;;;;;;5.78;1.80;;;9.80;99.90;;;;;;5110540;28;20381;-83
2022/12/29 03:32:58;;;;;;;3.95;1.77;;;9.90;99.90;;;;;;5093325;28;20082;-82
2022/12/29 03:35:27;;;;;;;3.22;1.65;;;9.80;99.90;;;;;;5120455;28;20068;-82
2022/12/29 03:38:15;;;;;;;3.58;1.60;;;9.80;99.90;;;;;;5106570;28;20048;-82
2022/12/29 03:40:45;;;;;;;3.08;1.67;;;9.80;99.90;;;;;;5106264;28;20473;-82
2022/12/29 03:43:13;;;;;;;2.60;1.40;;;9.80;99.90;;;;;;5109363;28;20500;-82
2022/12/29 03:45:40;;;;;;;3.35;1.80;;;9.90;99.90;;;;;;5076395;28;20078;-82
2022/12/29 03:48:06;;;;;;;3.42;1.80;;;9.90;99.90;;;;;;5093028;28;20044;-82
2022/12/29 03:50:33;;;;;;;3.75;1.65;;;9.90;99.90;;;;;;5093315;28;20036;-82
2022/12/29 03:53:00;;;;;;;3.80;1.50;;;9.90;99.90;;;;;;5092618;28;20138;-82
2022/12/29 03:55:27;;;;;;;2.75;1.50;;;9.90;99.90;;;;;;5089615;28;20044;-82
2022/12/29 03:57:53;;;;;;;5.53;1.52;;;9.90;99.90;;;;;;5072314;28;20046;-83
2022/12/29 04:00:20;;;;;;;3.10;1.60;;;9.80;99.90;;;;;;5057020;28;20043;-82
2022/12/29 04:02:47;;;;;;;3.47;1.50;;;9.80;99.90;;;;;;5089033;28;20123;-82
2022/12/29 04:05:13;;;;;;;3.13;1.50;;;9.80;99.90;;;;;;5065401;28;20033;-82
2022/12/29 04:07:40;;;;;;;4.03;1.50;;;9.70;99.90;;;;;;5072276;28;20082;-81
2022/12/29 04:10:07;;;;;;;3.70;1.73;;;9.70;99.90;;;;;;5072516;28;20485;-80
2022/12/29 04:12:34;;;;;;;3.90;1.60;;;9.70;99.90;;;;;;5072679;28;20436;-81
2022/12/29 04:15:00;;;;;;;4.20;1.42;;;9.70;99.90;;;;;;5076416;28;20050;-81
2022/12/29 04:17:27;;;;;;;5.20;1.50;;;9.80;99.90;;;;;;5072813;28;20124;-81
2022/12/29 04:20:59;;;;;;;4.32;1.52;;;9.70;99.90;;;;;;5088878;28;20123;-81
2022/12/29 04:22:43;;;;;;;3.13;1.35;;;9.70;99.90;;;;;;5091820;28;20053;-80
2022/12/29 04:25:10;;;;;;;3.85;1.77;;;9.70;99.90;;;;;;5072310;28;20389;-81
2022/12/29 04:27:37;;;;;;;5.03;1.55;;;9.80;99.90;;;;;;5088846;28;20048;-81
2022/12/29 04:30:04;;;;;;;4.47;1.70;;;9.70;99.90;;;;;;5088827;28;20044;-82
2022/12/29 04:32:31;;;;;;;4.10;1.30;;;9.80;99.90;;;;;;5072191;28;20052;-82
2022/12/29 04:34:57;;;;;;;5.93;1.77;;;9.80;99.90;;;;;;5072596;28;20040;-81
2022/12/29 04:37:24;;;;;;;4.05;1.40;;;9.80;99.90;;;;;;5089127;28;20076;-81
2022/12/29 04:39:51;;;;;;;4.07;1.30;;;9.50;99.90;;;;;;5089541;28;20068;-81
2022/12/29 04:42:17;;;;;;;4.65;1.17;;;9.70;99.90;;;;;;5076244;28;20077;-81
2022/12/29 04:44:47;;;;;;;3.83;1.40;;;9.80;99.90;;;;;;5092864;28;20405;-81
2022/12/29 04:47:14;;;;;;;6.43;1.10;;;9.70;99.90;;;;;;5076637;28;20071;-81
2022/12/29 04:49:40;;;;;;;5.82;1.15;;;9.70;99.90;;;;;;5093300;28;20102;-81
2022/12/29 04:52:08;;;;;;;3.70;1.00;;;9.70;99.90;;;;;;5075984;28;20072;-81
2022/12/29 04:54:34;;;;;;;2.88;0.90;;;9.80;99.90;;;;;;5092861;28;20040;-82
2022/12/29 04:57:01;;;;;;;3.72;0.80;;;9.80;99.90;;;;;;5109129;28;20037;-81
2022/12/29 04:59:28;;;;;;;2.95;0.98;;;9.70;99.90;;;;;;5076214;28;20556;-81
2022/12/29 05:01:55;;;;;;;5.15;1.05;;;9.70;99.90;;;;;;5111716;28;20044;-81
2022/12/29 05:04:21;;;;;;;4.43;1.00;;;9.70;99.90;;;;;;5095951;28;20051;-82
2022/12/29 05:06:48;;;;;;;5.38;1.00;;;9.70;99.90;;;;;;5095763;28;20758;-81
2022/12/29 05:09:15;;;;;;;4.97;0.95;;;9.60;99.90;;;;;;5112362;28;20042;-81
2022/12/29 05:11:41;;;;;;;3.90;1.05;;;9.60;99.90;;;;;;5095762;28;20079;-82
2022/12/29 05:14:08;;;;;;;3.35;0.90;;;9.60;99.90;;;;;;5112342;28;20036;-80
2022/12/29 05:16:35;;;;;;;4.00;1.10;;;9.60;99.90;;;;;;5079471;28;20036;-81
2022/12/29 05:19:01;;;;;;;3.53;0.90;;;9.50;99.90;;;;;;5112307;28;20050;-81
2022/12/29 05:21:28;;;;;;;6.63;1.00;;;9.50;99.90;;;;;;5079145;28;20035;-81
2022/12/29 05:23:55;;;;;;;3.08;0.95;;;9.40;99.90;;;;;;5092068;28;20040;-81
2022/12/29 05:26:21;;;;;;;4.70;1.23;;;9.50;99.90;;;;;;5075463;28;20055;-81
2022/12/29 05:28:48;;;;;;;4.72;1.25;;;9.40;99.90;;;;;;5075893;28;20044;-83
2022/12/29 05:31:15;;;;;;;6.30;1.13;;;9.50;99.90;;;;;;5108498;28;20042;-80
2022/12/29 05:33:41;;;;;;;5.53;1.30;;;9.40;99.90;;;;;;5081610;28;20040;-81
2022/12/29 05:36:09;;;;;;;5.28;1.38;;;9.40;99.90;;;;;;5075313;28;20044;-81
2022/12/29 05:38:36;;;;;;;7.32;1.23;;;9.30;99.90;;;;;;5092406;28;20054;-81
2022/12/29 05:41:03;;;;;;;8.02;1.30;;;9.30;99.90;;;;;;5108246;28;20040;-81
2022/12/29 05:43:29;;;;;;;5.43;1.30;;;9.20;99.90;;;;;;5092078;28;20111;-81
2022/12/29 05:45:57;;;;;;;8.10;1.35;;;9.20;99.90;;;;;;5077540;28;20052;-80
2022/12/29 05:48:23;;;;;;;6.63;1.35;;;9.20;99.90;;;;;;5108811;28;20072;-81
2022/12/29 05:50:51;;;;;;;5.25;1.40;;;9.10;99.90;;;;;;5091707;28;20144;-81
2022/12/29 05:53:18;;;;;;;5.45;1.17;;;9.20;99.90;;;;;;5108125;28;20040;-81
2022/12/29 05:55:47;;;;;;;5.50;1.35;;;9.10;99.90;;;;;;5093482;28;20043;-81
2022/12/29 05:58:15;;;;;;;6.47;1.40;;;9.10;99.90;;;;;;5128162;28;20444;-80
2022/12/29 06:00:42;;;;;;;9.13;1.65;;;9.10;99.90;;;;;;5112361;28;20043;-81
2022/12/29 06:03:09;;;;;;;9.43;1.63;;;9.00;99.90;;;;;;5128327;28;20040;-81
2022/12/29 06:05:35;;;;;;;10.63;1.67;;;9.00;99.90;;;;;;5078284;28;20115;-81
2022/12/29 06:08:02;;;;;;;6.43;1.45;;;8.90;99.90;;;;;;5074453;28;20044;-81
2022/12/29 06:10:29;;;;;;;6.85;1.60;;;8.90;99.90;;;;;;5108346;28;20044;-81
2022/12/29 06:12:55;;;;;;;8.45;1.42;;;8.90;99.90;;;;;;5074904;28;20127;-81
2022/12/29 06:15:22;;;;;;;10.32;1.27;;;8.90;99.90;;;;;;5091496;28;20039;-81
2022/12/29 06:17:49;;;;;;;5.32;1.35;;;8.90;99.90;;;;;;5091344;28;20070;-81
2022/12/29 06:20:15;;;;;;;5.07;1.10;;;8.90;99.90;;;;;;5074410;28;20039;-81
2022/12/29 06:22:42;;;;;;;6.00;1.50;;;8.90;99.90;;;;;;5107807;28;20381;-81
2022/12/29 06:25:09;;;;;;;7.82;1.42;;;8.90;99.90;;;;;;5090768;28;20049;-81
2022/12/29 06:27:36;;;;;;;6.20;1.13;;;9.00;99.90;;;;;;5074703;28;20045;-81
2022/12/29 06:30:03;;;;;;;5.40;1.30;;;9.00;99.90;;;;;;5110805;28;20040;-81
2022/12/29 06:32:30;;;;;;;6.60;1.60;;;8.90;99.90;;;;;;5094683;28;20040;-81
2022/12/29 06:34:56;;;;;;;7.55;1.20;;;9.00;99.90;;;;;;5094671;28;20039;-81
2022/12/29 06:37:23;;;;;;;4.50;1.13;;;9.00;99.90;;;;;;5077402;28;20047;-81
2022/12/29 06:39:50;;;;;;;5.32;1.10;;;9.10;99.90;;;;;;5074162;28;20127;-81
2022/12/29 06:42:17;;;;;;;9.02;1.40;;;9.10;99.90;;;;;;5073922;28;20671;-81
2022/12/29 06:44:43;;;;;;;8.23;1.50;;;9.20;99.90;;;;;;5107511;28;20077;-81
2022/12/29 06:47:10;;;;;;;6.30;1.20;;;9.10;99.90;;;;;;5107605;28;20045;-81
2022/12/29 06:49:37;;;;;;;9.18;1.70;;;9.10;99.90;;;;;;5091040;28;20079;-81
2022/12/29 06:52:04;;;;;;;7.13;1.35;;;9.10;99.90;;;;;;5107446;28;20047;-83
2022/12/29 06:54:31;;;;;;;10.80;1.60;;;9.10;99.90;;;;;;5091100;28;20060;-82
2022/12/29 06:56:58;;;;;;;9.30;1.88;;;9.20;99.90;;;;;;5107416;28;20040;-81
2022/12/29 06:59:25;;;;;;;10.63;1.77;;;9.20;99.90;;;;;;5106676;28;20216;-81
2022/12/29 07:01:52;;;;;;;7.03;1.38;;;9.10;99.90;;;;;;5115485;28;20460;-81
2022/12/29 07:04:19;;;;;;;6.50;1.50;;;9.10;99.90;;;;;;5072916;28;20123;-81
2022/12/29 07:06:45;;;;;;;8.00;1.60;;;9.10;99.90;;;;;;5073861;28;20514;-82
2022/12/29 07:09:12;;;;;;;7.53;1.40;;;9.10;99.90;;;;;;5073554;28;20040;-81
2022/12/29 07:11:39;;;;;;;8.85;1.73;;;9.10;99.90;;;;;;5073561;28;20076;-80
2022/12/29 07:14:05;;;;;;;7.03;1.50;;;9.10;99.90;;;;;;5090751;28;20040;-80
2022/12/29 07:16:34;;;;;;;8.05;1.65;;;9.10;99.90;;;;;;5093126;28;20032;-80
2022/12/29 07:19:00;;;;;;;10.43;1.60;;;9.00;99.90;;;;;;5093704;28;20078;-82
2022/12/29 07:21:27;;;;;;;11.55;2.45;;;9.00;99.90;;;;;;5093208;28;20060;-81
2022/12/29 07:23:54;;;;;;;9.32;1.65;;;9.00;99.90;;;;;;5091949;28;20511;-81
2022/12/29 07:26:21;;;;;;;9.75;1.90;;;9.00;99.90;;;;;;5130183;28;20431;-81
2022/12/29 07:28:48;;;;;;;10.25;2.00;;;9.00;99.90;;;;;;5110724;28;20032;-81
2022/12/29 07:31:17;;;;;;;5.85;1.33;;;8.90;99.90;;;;;;5095761;28;20429;-81
2022/12/29 07:33:44;;;;;;;10.55;1.90;;;8.90;99.90;;;;;;5131157;28;20117;-81
2022/12/29 07:36:12;;;;;;;5.90;1.17;;;8.90;99.90;;;;;;5102059;28;20055;-80
2022/12/29 07:38:39;;;;;;;5.72;1.50;;;8.90;99.90;;;;;;5128792;28;20403;-81
2022/12/29 07:41:06;;;;;;;6.28;1.30;;;8.90;99.90;;;;;;5117575;28;20522;-81
2022/12/29 07:43:33;;;;;;;7.57;1.35;;;8.90;99.90;;;;;;5086384;28;20040;-80
2022/12/29 07:46:00;;;;;;;9.45;1.63;;;8.90;99.90;;;;;;5085794;28;20039;-82
2022/12/29 07:48:27;;;;;;;7.00;2.03;;;9.00;99.90;;;;;;5132770;28;20109;-81
2022/12/29 07:50:54;;;;;;;9.32;1.67;;;8.90;99.90;;;;;;5100043;28;20045;-80
2022/12/29 07:53:20;;;;;;;8.38;1.58;;;9.00;99.90;;;;;;5093815;28;20045;-81
2022/12/29 07:55:47;;;;;;;8.82;1.42;;;9.00;99.90;;;;;;5077915;28;20044;-81
2022/12/29 07:58:14;;;;;;;10.30;1.92;;;9.00;99.90;;;;;;5087087;28;20054;-81
2022/12/29 08:00:40;;;;;;;6.30;1.42;;;9.10;99.90;;;;;;5119252;28;20048;-82
2022/12/29 08:03:07;;;;;;;9.05;1.75;;;9.10;99.90;;;;;;5104799;28;20047;-81
2022/12/29 08:05:34;;;;;;;6.68;1.50;;;9.10;99.90;;;;;;5087035;28;20337;-82
2022/12/29 08:08:01;;;;;;;10.73;1.70;;;9.10;99.90;;;;;;5129998;28;20054;-80
2022/12/29 08:10:27;;;;;;;10.48;1.42;;;9.10;99.90;;;;;;5129367;28;20031;-81
2022/12/29 08:12:54;;;;;;;10.43;1.70;;;9.10;99.90;;;;;;5096289;28;20043;-81
2022/12/29 08:15:21;;;;;;;3.53;1.52;;;9.10;99.90;;;;;;5110594;28;20035;-79
2022/12/29 08:17:47;;;;;;;5.40;1.15;;;9.20;99.90;;;;;;5112683;28;20038;-80
2022/12/29 08:20:14;;;;;;;6.97;1.60;;;9.20;99.90;;;;;;5095126;28;20041;-80
2022/12/29 08:22:41;;;;;;;8.90;1.48;;;9.30;99.90;;;;;;5095181;28;20088;-80
2022/12/29 08:25:08;;;;;;;9.18;1.85;;;9.30;99.90;;;;;;5075789;28;20079;-81
2022/12/29 08:27:35;;;;;;;11.35;1.88;;;9.30;99.90;;;;;;5086244;28;20101;-81
2022/12/29 08:30:02;;;;;;;8.73;1.60;;;9.30;99.90;;;;;;5092991;28;20040;-80
2022/12/29 08:32:29;;;;;;;11.55;1.92;;;9.30;99.90;;;;;;5112240;28;20040;-80
2022/12/29 08:34:55;;;;;;;10.10;1.92;;;9.30;99.90;;;;;;5106196;28;20040;-80
2022/12/29 08:37:22;;;;;;;8.00;1.40;;;9.30;99.90;;;;;;5087046;28;20035;-81
2022/12/29 08:39:49;;;;;;;11.27;1.50;;;9.30;99.90;;;;;;5093119;28;20492;-80
2022/12/29 08:42:16;;;;;;;8.60;1.17;;;9.30;99.90;;;;;;5095654;28;20075;-82
2022/12/29 08:44:42;;;;;;;10.80;1.45;;;9.30;99.90;;;;;;5099769;28;20040;-80
2022/12/29 08:47:11;;;;;;;10.43;1.67;;;9.30;99.90;;;;;;5092894;28;20040;-81
2022/12/29 08:49:37;;;;;;;6.85;1.48;;;9.30;99.90;;;;;;5133669;28;20044;-81
2022/12/29 08:52:04;;;;;;;7.90;1.73;;;9.40;99.90;;;;;;5080293;28;20526;-81
2022/12/29 08:54:31;;;;;;;7.18;1.30;;;9.40;99.90;;;;;;5091948;28;20751;-81
2022/12/29 08:56:57;;;;;;;7.25;1.60;;;9.30;99.90;;;;;;5097685;28;20500;-82
2022/12/29 08:59:24;;;;;;;9.20;1.50;;;9.40;99.90;;;;;;5088626;28;20439;-80
2022/12/29 09:01:51;;;;;;;10.60;1.60;;;9.40;99.90;;;;;;5088921;28;20061;-80
2022/12/29 09:04:18;;;;;;;10.73;1.65;;;9.40;99.90;;;;;;5084786;28;20429;-80
2022/12/29 09:06:45;;;;;;;13.35;2.28;;;9.40;99.90;;;;;;5096582;28;20151;-81
2022/12/29 09:09:12;;;;;;;11.90;1.73;;;9.40;99.90;;;;;;5128357;28;20560;-81
2022/12/29 09:11:39;;;;;;;6.97;1.50;;;9.40;99.90;;;;;;5106316;28;20501;-82
2022/12/29 09:14:06;;;;;;;10.13;1.80;;;9.40;99.90;;;;;;5078238;28;20115;-81
2022/12/29 09:16:33;;;;;;;10.82;2.13;;;9.40;99.90;;;;;;5107901;28;20468;-81
2022/12/29 09:19:00;;;;;;;7.68;1.65;;;9.40;99.90;;;;;;5111429;28;20032;-81
2022/12/29 09:21:27;;;;;;;6.95;1.25;;;9.40;99.90;;;;;;5140865;28;20442;-79
2022/12/29 09:23:54;;;;;;;12.70;1.45;;;9.40;99.90;;;;;;5105865;28;20036;-82
2022/12/29 09:26:20;;;;;;;7.90;1.67;;;9.40;99.90;;;;;;5111436;28;20117;-82
2022/12/29 09:28:47;;;;;;;12.18;1.90;;;9.40;99.90;;;;;;5141466;28;20138;-81
2022/12/29 09:31:14;;;;;;;8.27;1.25;;;9.50;99.90;;;;;;5115439;28;20032;-84
2022/12/29 09:33:41;;;;;;;7.13;1.50;;;9.50;99.90;;;;;;5132296;28;20044;-83
2022/12/29 09:36:08;;;;;;;5.28;1.42;;;9.40;99.90;;;;;;5077151;28;20032;-84
2022/12/29 09:38:36;;;;;;;9.73;1.80;;;9.40;99.90;;;;;;5091710;28;20041;-84
2022/12/29 09:41:26;;;;;;;8.60;1.85;;;9.30;99.90;;;;;;5125662;28;20044;-84
2022/12/29 09:43:58;;;;;;;14.18;3.00;;;9.30;99.90;;;;;;5108117;28;20044;-83
2022/12/29 09:46:35;;;;;;;7.53;1.40;;;9.20;99.90;;;;;;5112052;28;20081;-83
2022/12/29 09:49:28;;;;;;;16.27;1.95;;;9.20;99.90;;;;;;5111876;28;20119;-83
2022/12/29 09:52:01;;;;;;;14.50;2.58;;;9.20;99.90;;;;;;5111720;28;20090;-83
2022/12/29 09:55:00;;;;;;;12.63;2.70;;;9.10;99.90;;;;;;5129008;28;20036;-83
2022/12/29 09:57:54;;;;;;;8.73;1.70;;;9.00;99.90;;;;;;5101222;28;20500;-83
2022/12/29 10:00:23;;;;;;;7.35;2.10;;;9.00;99.90;;;;;;5091095;28;20637;-83
2022/12/29 10:03:20;;;;;;;13.82;2.58;;;9.00;99.90;;;;;;5107971;28;20102;-82
2022/12/29 10:06:05;;;;;;;11.25;2.00;;;9.00;99.90;;;;;;5089353;28;20051;-83
2022/12/29 10:08:38;;;;;;;11.52;2.63;;;9.00;99.90;;;;;;5091651;28;20043;-82
2022/12/29 10:11:40;;;;;;;9.45;2.20;;;9.00;99.90;;;;;;5104930;28;20047;-83
2022/12/29 10:14:18;;;;;;;9.38;1.85;;;9.10;99.90;;;;;;5111924;28;20488;-84
2022/12/29 10:16:59;;;;;;;9.05;1.77;;;9.10;99.90;;;;;;5111086;28;20066;-83
2022/12/29 10:19:32;;;;;;;13.10;1.88;;;9.10;99.90;;;;;;5128410;28;20040;-83
2022/12/29 10:22:42;;;;;;;10.95;1.73;;;9.10;99.90;;;;;;5110817;28;20035;-83
2022/12/29 10:25:20;;;;;;;8.13;1.70;;;9.10;99.90;;;;;;5109779;28;20499;-83
2022/12/29 10:27:49;;;;;;;9.60;1.73;;;9.00;99.90;;;;;;5127909;28;20036;-82
2022/12/29 10:30:17;;;;;;;8.13;1.65;;;9.00;99.90;;;;;;5127339;28;20123;-83
2022/12/29 10:32:52;;;;;;;10.77;1.83;;;9.00;99.90;;;;;;5091087;28;20032;-83
2022/12/29 10:35:26;;;;;;;9.90;1.52;;;9.00;99.90;;;;;;5108255;28;20037;-83
2022/12/29 10:38:01;;;;;;;10.38;1.80;;;9.00;99.90;;;;;;5106349;28;20382;-83
2022/12/29 10:40:42;;;;;;;9.02;1.77;;;9.00;99.90;;;;;;5113713;28;20039;-83
2022/12/29 10:43:51;;;;;;;10.25;1.67;;;8.90;99.90;;;;;;5097122;28;20032;-83
2022/12/29 10:46:38;;;;;;;13.02;1.60;;;8.90;99.90;;;;;;5117013;28;20057;-84
2022/12/29 10:49:14;;;;;;;13.45;1.75;;;8.90;99.90;;;;;;5128621;28;20395;-84
2022/12/29 10:51:44;;;;;;;8.80;1.52;;;8.90;99.90;;;;;;5125909;28;20059;-83
2022/12/29 10:54:26;;;;;;;9.02;1.50;;;8.80;99.90;;;;;;5117863;28;20047;-84
2022/12/29 10:57:08;;;;;;;12.48;2.00;;;8.70;99.90;;;;;;5142639;28;20039;-84
2022/12/29 10:59:37;;;;;;;9.10;2.05;;;8.70;99.90;;;;;;5125341;28;20439;-84
2022/12/29 11:02:06;;;;;;;8.77;2.05;;;8.60;99.90;;;;;;5126338;28;20044;-83
2022/12/29 11:05:07;;;;;;;7.82;1.40;;;8.60;99.90;;;;;;5127006;28;20036;-83
2022/12/29 11:07:33;;;;;;;14.07;1.90;;;8.60;99.90;;;;;;5124416;28;20035;-83
2022/12/29 11:10:16;;;;;;;6.15;1.63;;;8.60;99.90;;;;;;5118421;28;20105;-83
2022/12/29 11:13:02;;;;;;;15.65;2.30;;;8.60;99.90;;;;;;5112818;28;20059;-84
2022/12/29 11:15:46;;;;;;;7.88;2.15;;;8.60;99.90;;;;;;5115815;28;20035;-82
2022/12/29 11:18:36;;;;;;;9.25;1.70;;;8.60;99.90;;;;;;5137314;28;20518;-83
2022/12/29 11:21:24;;;;;;;10.18;1.98;;;8.60;99.90;;;;;;5135289;28;20040;-84
2022/12/29 11:24:03;;;;;;;8.35;1.48;;;8.60;99.90;;;;;;5110857;28;20147;-85
2022/12/29 11:26:31;;;;;;;6.65;1.50;;;8.60;99.90;;;;;;5110592;28;20032;-84
2022/12/29 11:29:07;;;;;;;6.28;1.73;;;8.50;99.90;;;;;;5096738;28;20036;-85
2022/12/29 11:31:41;;;;;;;8.25;1.83;;;8.50;99.90;;;;;;5126307;28;20399;-84
2022/12/29 11:34:08;;;;;;;8.50;1.58;;;8.50;99.90;;;;;;5120898;28;20031;-83
2022/12/29 11:36:35;;;;;;;10.43;1.58;;;8.50;99.90;;;;;;5084474;28;20096;-84
2022/12/29 11:39:05;;;;;;;5.18;1.63;;;8.50;99.90;;;;;;5091008;28;20032;-84
2022/12/29 11:41:32;;;;;;;7.18;2.03;;;8.50;99.90;;;;;;5084450;28;20070;-83
2022/12/29 11:44:03;;;;;;;8.38;1.60;;;8.50;99.90;;;;;;5089725;28;20138;-83
2022/12/29 11:46:33;;;;;;;7.22;1.75;;;8.50;99.90;;;;;;5113766;28;20036;-83
2022/12/29 11:49:01;;;;;;;10.82;1.70;;;8.50;99.90;;;;;;5115916;28;20040;-83
2022/12/29 11:51:32;;;;;;;9.23;1.48;;;8.40;99.90;;;;;;5089846;28;20086;-84
2022/12/29 11:54:02;;;;;;;9.75;1.55;;;8.40;99.90;;;;;;5116712;28;20032;-84
2022/12/29 11:56:43;;;;;;;7.93;1.77;;;8.50;99.90;;;;;;5125050;28;20032;-84
2022/12/29 11:59:31;;;;;;;14.27;2.22;;;8.50;99.90;;;;;;5122878;28;20408;-84
2022/12/29 12:02:00;;;;;;;12.93;1.92;;;8.50;99.90;;;;;;5111331;28;20044;-83
2022/12/29 12:04:34;;;;;;;9.48;1.80;;;8.50;99.90;;;;;;5109446;28;20044;-84
2022/12/29 12:07:12;;;;;;;11.63;1.80;;;8.50;99.90;;;;;;5103745;28;20548;-83
2022/12/29 12:09:48;;;;;;;17.85;3.00;;;8.50;99.90;;;;;;5099202;28;20073;-84
2022/12/29 12:12:36;;;;;;;8.18;2.03;;;8.50;99.90;;;;;;5109335;28;20508;-83
2022/12/29 12:15:04;;;;;;;13.18;2.00;;;8.60;99.90;;;;;;5125682;28;20040;-83
2022/12/29 12:17:39;;;;;;;14.30;1.85;;;8.70;99.90;;;;;;5104667;28;20670;-83
2022/12/29 12:20:15;;;;;;;;;;;8.80;99.90;;;;;;5126409;28;20384;-84
2022/12/29 12:22:50;;;;;;;15.47;2.73;;;8.90;99.90;;;;;;5126372;28;19938;-82
2022/12/29 12:25:23;;;;;;;16.15;2.35;;;8.90;99.90;;;;;;5125663;28;20101;-83
2022/12/29 12:28:18;;;;;;;11.40;2.15;;;8.90;99.90;;;;;;5106286;28;20044;-83
2022/12/29 12:30:50;;;;;;;15.45;2.40;;;8.90;99.90;;;;;;5126549;28;20047;-84
2022/12/29 12:33:30;;;;;;;8.40;1.80;;;8.90;99.90;;;;;;5125899;28;20044;-83
2022/12/29 12:36:45;;;;;;;14.43;2.47;;;8.90;99.90;;;;;;5109403;28;20048;-83
2022/12/29 12:39:26;;;;;;;11.40;2.22;;;8.90;99.90;;;;;;5087586;28;20044;-83
2022/12/29 12:42:04;;;;;;;14.25;2.58;;;8.90;99.90;;;;;;5112038;28;20407;-83
2022/12/29 12:44:54;;;;;;;17.15;2.60;;;8.90;99.90;;;;;;5133935;28;20052;-83
2022/12/29 12:47:54;;;;;;;14.60;2.67;;;9.00;99.90;;;;;;5084323;28;20134;-83
2022/12/29 12:50:36;;;;;;;17.13;2.20;;;9.00;99.90;;;;;;5116207;28;20118;-83
2022/12/29 12:53:21;;;;;;;13.48;3.10;;;9.10;99.90;;;;;;5128765;28;20094;-83
2022/12/29 12:55:54;;;;;;;11.90;2.17;;;9.20;99.90;;;;;;5088964;28;20451;-83
2022/12/29 12:58:32;;;;;;;15.25;2.90;;;9.30;99.90;;;;;;5122577;28;20561;-83
2022/12/29 13:01:14;;;;;;;18.75;2.80;;;9.40;99.90;;;;;;5131459;28;20058;-84
2022/12/29 13:04:06;;;;;;;14.75;2.33;;;9.40;99.90;;;;;;5118538;28;20497;-84
2022/12/29 13:07:04;;;;;;;16.02;2.53;;;9.50;99.90;;;;;;5132213;28;20048;-83
2022/12/29 13:09:53;;;;;;;11.38;1.88;;;9.60;99.90;;;;;;5122267;28;20078;-83
2022/12/29 13:12:39;;;;;;;14.77;2.33;;;9.60;99.90;;;;;;5119835;28;20544;-83
2022/12/29 13:15:19;;;;;;;15.15;2.30;;;9.60;99.90;;;;;;5094559;28;20071;-84
2022/12/29 13:18:09;;;;;;;9.05;2.00;;;9.50;99.90;;;;;;5092634;28;20043;-83
2022/12/29 13:20:58;;;;;;;16.10;2.15;;;9.50;99.90;;;;;;5103172;28;20037;-82
2022/12/29 13:24:07;;;;;;;8.32;1.85;;;9.40;99.90;;;;;;5121314;28;20606;-85
2022/12/29 13:26:46;;;;;;;10.82;1.85;;;9.30;99.90;;;;;;5120124;28;20074;-84
2022/12/29 13:29:31;;;;;;;13.10;2.25;;;9.30;99.90;;;;;;5136928;28;20575;-84
2022/12/29 13:32:33;;;;;;;13.45;2.58;;;9.30;99.90;;;;;;5130078;28;20040;-84
2022/12/29 13:35:28;;;;;;;7.28;1.85;;;9.20;99.90;;;;;;5120440;28;20043;-82
2022/12/29 13:37:59;;;;;;;17.70;2.47;;;9.10;99.90;;;;;;5108422;28;20041;-83
2022/12/29 13:40:33;;;;;;;18.00;2.60;;;9.10;99.90;;;;;;5096508;28;20036;-83
2022/12/29 13:43:02;;;;;;;19.25;1.85;;;9.10;99.90;;;;;;5115625;28;20046;-82
2022/12/29 13:45:32;;;;;;;13.75;2.08;;;9.00;99.90;;;;;;5128181;28;20043;-81
2022/12/29 13:48:32;;;;;;;16.00;2.22;;;9.00;99.90;;;;;;5141637;28;20058;-82
2022/12/29 13:51:00;;;;;;;17.80;2.30;;;9.00;99.90;;;;;;5110530;28;20442;-83
2022/12/29 13:54:16;;;;;;;15.85;2.45;;;8.90;99.90;;;;;;5107949;28;20043;-83
2022/12/29 13:57:03;;;;;;;12.00;2.03;;;8.90;99.90;;;;;;5107141;28;20185;-82